TimeCDT,TemperatureF,Dew PointF,Humidity,Sea Level PressureIn,VisibilityMPH,Wind Direction,Wind SpeedMPH,Gust SpeedMPH,PrecipitationIn,Events,Conditions,WindDirDegrees,DateUTC
12:53 AM,43.0,32.0,65,30.27,10.0,NE,10.4,-,N/A,,Overcast,50,2012-10-06 05:53:00
1:53 AM,42.1,32.0,67,30.27,10.0,NE,12.7,-,N/A,,Overcast,50,2012-10-06 06:53:00
2:53 AM,42.1,32.0,67,30.26,10.0,ENE,10.4,-,N/A,,Overcast,60,2012-10-06 07:53:00
3:53 AM,42.1,30.9,65,30.25,10.0,ENE,9.2,-,N/A,,Overcast,60,2012-10-06 08:53:00
4:53 AM,41.0,30.0,65,30.25,10.0,ENE,9.2,-,N/A,,Overcast,70,2012-10-06 09:53:00
5:53 AM,41.0,30.0,65,30.24,10.0,East,6.9,-,N/A,,Overcast,90,2012-10-06 10:53:00
6:53 AM,41.0,30.9,67,30.26,10.0,ENE,10.4,-,N/A,,Overcast,60,2012-10-06 11:53:00
7:53 AM,39.9,32.0,73,30.29,10.0,ENE,6.9,-,N/A,,Overcast,60,2012-10-06 12:53:00
9:53 AM,39.9,32.0,73,30.29,10.0,ESE,8.1,-,N/A,,Overcast,120,2012-10-06 14:53:00
10:20 AM,39.2,32.0,75,30.31,10.0,East,8.1,-,N/A,,Overcast,80,2012-10-06 15:20:00
10:53 AM,41.0,32.0,70,30.30,10.0,East,6.9,-,N/A,,Overcast,90,2012-10-06 15:53:00
11:24 AM,41.0,32.0,70,30.31,10.0,East,6.9,-,N/A,,Overcast,90,2012-10-06 16:24:00
11:53 AM,41.0,32.0,70,30.30,10.0,East,4.6,-,N/A,,Overcast,100,2012-10-06 16:53:00
12:53 PM,41.0,33.1,73,30.31,10.0,ESE,6.9,-,N/A,,Overcast,110,2012-10-06 17:53:00
1:53 PM,41.0,34.0,76,30.29,10.0,SE,6.9,-,N/A,,Overcast,130,2012-10-06 18:53:00
2:23 PM,39.2,35.6,87,30.28,8.0,ESE,5.8,-,N/A,,Overcast,120,2012-10-06 19:23:00
2:34 PM,39.2,35.6,87,30.28,8.0,ESE,6.9,-,N/A,,Overcast,110,2012-10-06 19:34:00
2:53 PM,39.9,36.0,86,30.27,7.0,East,5.8,-,N/A,,Overcast,100,2012-10-06 19:53:00
2:58 PM,39.2,35.6,87,30.27,6.0,East,6.9,-,N/A,,Overcast,100,2012-10-06 19:58:00
3:37 PM,39.2,37.4,93,30.27,9.0,ESE,8.1,-,0.00,,Overcast,110,2012-10-06 20:37:00
3:46 PM,39.2,35.6,87,30.27,10.0,ESE,6.9,-,0.00,,Overcast,120,2012-10-06 20:46:00
3:53 PM,39.0,34.0,82,30.27,10.0,ESE,6.9,-,0.00,,Overcast,120,2012-10-06 20:53:00
4:00 PM,39.2,35.6,87,30.26,10.0,East,5.8,-,N/A,,Overcast,100,2012-10-06 21:00:00
4:53 PM,39.9,34.0,79,30.26,10.0,East,8.1,-,N/A,,Overcast,80,2012-10-06 21:53:00
6:36 PM,42.8,32.0,66,30.28,10.0,NE,6.9,-,N/A,,Overcast,50,2012-10-06 23:36:00
6:48 PM,42.8,32.0,66,30.28,10.0,ENE,5.8,-,N/A,,Overcast,70,2012-10-06 23:48:00
6:53 PM,42.1,32.0,67,30.28,10.0,ENE,6.9,-,N/A,,Overcast,60,2012-10-06 23:53:00
7:53 PM,42.1,32.0,67,30.30,10.0,ENE,6.9,-,N/A,,Overcast,70,2012-10-07 00:53:00
8:16 PM,41.0,33.8,76,30.31,10.0,East,6.9,-,N/A,,Overcast,80,2012-10-07 01:16:00
8:42 PM,41.0,33.8,76,30.32,10.0,ENE,9.2,-,N/A,,Overcast,70,2012-10-07 01:42:00
8:53 PM,39.9,34.0,79,30.33,10.0,ENE,9.2,-,N/A,,Overcast,70,2012-10-07 01:53:00
9:53 PM,39.9,34.0,79,30.34,10.0,East,6.9,-,N/A,,Overcast,100,2012-10-07 02:53:00
11:07 PM,39.2,33.8,81,30.34,10.0,East,5.8,-,N/A,,Overcast,100,2012-10-07 04:07:00
11:53 PM,39.9,33.1,77,30.34,10.0,ESE,5.8,-,N/A,,Overcast,110,2012-10-07 04:53:00